Time;durP1;ratioP1;P1;durP2;ratioP2;P2;SDS_P1;SDS_P2;PMS_P1;PMS_P2;Temp;Humidity;BMP_temperature;BMP_pressure;BME280_temperature;BME280_humidity;BME280_pressure;Samples;Min_cycle;Max_cycle;Signal;HPM_P1;HPM_P2
2023/09/07 00:00:24;;;;;;;8.43;5.10;;;20.00;97.30;;;;;;5045227;28;20099;-72
2023/09/07 00:03:11;;;;;;;9.68;4.57;;;20.00;97.50;;;;;;5022075;28;20041;-72
2023/09/07 00:05:57;;;;;;;7.65;4.80;;;19.90;97.50;;;;;;5038788;28;20045;-72
2023/09/07 00:08:44;;;;;;;8.15;5.25;;;19.90;97.70;;;;;;5043175;28;20123;-72
2023/09/07 00:11:30;;;;;;;9.48;5.00;;;19.90;97.90;;;;;;5025156;28;20037;-73
2023/09/07 00:14:16;;;;;;;7.40;5.28;;;19.90;97.80;;;;;;5025289;28;20033;-72
2023/09/07 00:17:02;;;;;;;8.02;5.03;;;19.90;97.70;;;;;;5030847;28;20081;-73
2023/09/07 00:19:49;;;;;;;7.93;5.05;;;19.80;98.00;;;;;;5019474;28;20068;-73
2023/09/07 00:22:35;;;;;;;7.07;5.22;;;19.80;97.90;;;;;;5036888;28;20045;-72
2023/09/07 00:25:21;;;;;;;9.30;5.35;;;19.70;98.20;;;;;;5035634;28;20635;-72
2023/09/07 00:28:08;;;;;;;7.50;4.57;;;19.60;98.50;;;;;;5047089;28;20049;-72
2023/09/07 00:30:54;;;;;;;10.60;5.03;;;19.60;98.50;;;;;;5033542;28;20051;-73
2023/09/07 00:33:40;;;;;;;8.32;5.05;;;19.60;98.50;;;;;;5046124;28;20037;-72
2023/09/07 00:36:25;;;;;;;12.23;5.60;;;19.60;98.60;;;;;;5022865;28;20037;-72
2023/09/07 00:39:12;;;;;;;9.02;4.75;;;19.50;98.70;;;;;;5034316;28;20045;-72
2023/09/07 00:42:00;;;;;;;7.32;5.07;;;19.50;98.60;;;;;;5033899;28;20055;-72
2023/09/07 00:44:47;;;;;;;9.20;6.00;;;19.50;98.70;;;;;;5043671;28;20041;-72
2023/09/07 00:47:34;;;;;;;7.40;5.25;;;19.40;98.80;;;;;;5019584;28;20053;-72
2023/09/07 00:50:20;;;;;;;13.43;5.70;;;19.30;98.90;;;;;;5025859;28;20421;-72
2023/09/07 00:53:06;;;;;;;7.70;5.70;;;19.30;99.30;;;;;;5029894;28;20120;-72
2023/09/07 00:55:54;;;;;;;9.43;5.90;;;19.20;99.10;;;;;;5034151;28;20499;-72
2023/09/07 00:58:40;;;;;;;7.93;5.25;;;19.20;99.30;;;;;;5036079;28;20115;-72
2023/09/07 01:01:26;;;;;;;10.93;5.68;;;19.10;99.40;;;;;;5028346;28;20040;-72
2023/09/07 01:04:12;;;;;;;8.32;5.55;;;19.20;99.40;;;;;;5035031;28;20045;-73
2023/09/07 01:07:20;;;;;;;6.65;5.35;;;19.10;99.60;;;;;;5036436;28;20413;-72
2023/09/07 01:10:07;;;;;;;10.02;6.03;;;19.10;99.80;;;;;;5035462;28;20045;-72
2023/09/07 01:12:53;;;;;;;8.32;5.80;;;19.00;99.80;;;;;;5036583;28;20536;-72
2023/09/07 01:15:39;;;;;;;6.90;5.40;;;19.00;99.80;;;;;;5034793;28;20091;-72
2023/09/07 01:18:25;;;;;;;9.63;5.50;;;19.00;99.90;;;;;;5036485;28;20125;-72
2023/09/07 01:21:11;;;;;;;9.15;5.35;;;18.90;99.90;;;;;;5036104;28;20045;-72
2023/09/07 01:23:57;;;;;;;8.25;5.30;;;19.00;99.90;;;;;;5033019;28;20045;-72
2023/09/07 01:26:43;;;;;;;8.55;5.63;;;18.90;99.90;;;;;;5027615;28;20052;-72
2023/09/07 01:29:30;;;;;;;7.15;5.50;;;18.90;99.90;;;;;;5037975;28;20136;-72
2023/09/07 01:32:15;;;;;;;9.13;5.43;;;18.90;99.90;;;;;;5047033;28;20028;-72
2023/09/07 01:35:01;;;;;;;10.95;5.53;;;18.90;99.90;;;;;;5038731;28;20041;-72
2023/09/07 01:37:48;;;;;;;7.30;4.93;;;18.90;99.90;;;;;;5020956;28;20383;-72
2023/09/07 01:40:34;;;;;;;8.15;4.70;;;18.80;99.90;;;;;;5028426;28;20037;-72
2023/09/07 01:43:20;;;;;;;6.95;5.40;;;18.80;99.90;;;;;;5044107;28;20072;-73
2023/09/07 01:46:06;;;;;;;6.57;4.88;;;18.70;99.90;;;;;;5039876;28;20040;-72
2023/09/07 01:48:52;;;;;;;9.57;6.03;;;18.70;99.90;;;;;;5052054;28;20053;-72
2023/09/07 01:51:38;;;;;;;5.78;5.05;;;18.60;99.90;;;;;;5046410;28;20045;-72
2023/09/07 01:54:24;;;;;;;8.38;5.43;;;18.60;99.90;;;;;;5036181;28;20454;-72
2023/09/07 01:57:10;;;;;;;9.30;5.53;;;18.60;99.90;;;;;;5053792;28;20095;-73
2023/09/07 01:59:56;;;;;;;10.35;6.07;;;18.60;99.90;;;;;;5014773;28;20493;-72
2023/09/07 02:02:42;;;;;;;8.02;5.80;;;18.50;99.90;;;;;;5037408;28;20459;-72
2023/09/07 02:05:27;;;;;;;6.90;5.28;;;18.60;99.90;;;;;;5033385;28;20037;-73
2023/09/07 02:08:13;;;;;;;9.27;6.10;;;18.50;99.90;;;;;;5054346;28;20396;-73
2023/09/07 02:11:00;;;;;;;8.38;5.30;;;18.50;99.90;;;;;;5048762;28;20134;-72
2023/09/07 02:13:47;;;;;;;9.80;5.38;;;18.50;99.90;;;;;;5047500;28;20037;-72
2023/09/07 02:16:33;;;;;;;8.90;5.82;;;18.50;99.90;;;;;;5040280;28;20033;-72
2023/09/07 02:19:22;;;;;;;9.00;5.68;;;18.50;99.90;;;;;;5042430;28;20612;-72
2023/09/07 02:22:08;;;;;;;8.48;5.88;;;18.50;99.90;;;;;;5033361;28;20045;-73
2023/09/07 02:24:54;;;;;;;8.00;5.65;;;18.50;99.90;;;;;;5030286;28;20047;-72
2023/09/07 02:27:40;;;;;;;8.95;5.53;;;18.40;99.90;;;;;;5022597;28;20194;-72
2023/09/07 02:30:26;;;;;;;9.82;5.60;;;18.40;99.90;;;;;;5023953;28;20040;-71
2023/09/07 02:33:12;;;;;;;6.78;5.72;;;18.50;99.90;;;;;;5013836;28;20049;-72
2023/09/07 02:35:58;;;;;;;7.20;5.80;;;18.40;99.90;;;;;;5031897;28;20037;-74
2023/09/07 02:38:44;;;;;;;7.43;5.40;;;18.40;99.90;;;;;;5048015;28;20130;-72
2023/09/07 02:41:32;;;;;;;9.15;5.47;;;18.40;99.90;;;;;;5045647;28;20801;-72
2023/09/07 02:44:18;;;;;;;7.28;5.85;;;18.40;99.90;;;;;;5037119;28;20058;-72
2023/09/07 02:47:04;;;;;;;10.82;5.80;;;18.40;99.90;;;;;;5035996;28;20037;-72
2023/09/07 02:49:51;;;;;;;10.15;5.82;;;18.40;99.90;;;;;;5045900;28;20160;-72
2023/09/07 02:52:37;;;;;;;10.75;5.60;;;18.40;99.90;;;;;;5042282;28;20049;-72
2023/09/07 02:55:23;;;;;;;11.18;5.80;;;18.40;99.90;;;;;;5023908;28;20113;-72
2023/09/07 02:58:09;;;;;;;8.52;5.78;;;18.40;99.90;;;;;;5060223;28;20059;-73
2023/09/07 03:00:55;;;;;;;7.75;5.40;;;18.30;99.90;;;;;;5032776;28;20049;-72
2023/09/07 03:03:42;;;;;;;9.35;6.15;;;18.40;99.90;;;;;;5023080;28;20040;-72
2023/09/07 03:06:28;;;;;;;8.75;5.60;;;18.40;99.90;;;;;;5059249;28;20098;-72
2023/09/07 03:09:16;;;;;;;11.18;6.68;;;18.30;99.90;;;;;;5040440;28;20123;-73
2023/09/07 03:12:02;;;;;;;10.70;6.23;;;18.30;99.90;;;;;;5043121;28;20059;-72
2023/09/07 03:14:50;;;;;;;8.60;5.75;;;18.30;99.90;;;;;;5042846;28;20279;-72
2023/09/07 03:17:36;;;;;;;9.93;5.80;;;18.30;99.90;;;;;;5034999;28;20068;-73
2023/09/07 03:20:22;;;;;;;8.73;6.35;;;18.30;99.90;;;;;;4986966;28;1402457;-72
2023/09/07 03:23:08;;;;;;;9.93;5.57;;;18.30;99.90;;;;;;5037635;28;20041;-72
2023/09/07 03:25:54;;;;;;;11.23;6.45;;;18.30;99.90;;;;;;5021876;28;20135;-72
2023/09/07 03:28:40;;;;;;;9.15;5.72;;;18.30;99.90;;;;;;5044968;28;20041;-72
2023/09/07 03:31:26;;;;;;;9.55;6.68;;;18.20;99.90;;;;;;5027214;28;20074;-72
2023/09/07 03:34:13;;;;;;;9.18;6.07;;;18.10;99.90;;;;;;5010516;28;20037;-72
2023/09/07 03:36:58;;;;;;;8.93;6.22;;;18.10;99.90;;;;;;5035734;28;20048;-72
2023/09/07 03:39:44;;;;;;;8.88;6.35;;;18.10;99.90;;;;;;5033429;28;20354;-73
2023/09/07 03:42:30;;;;;;;8.63;6.07;;;18.00;99.90;;;;;;5017329;28;20045;-72
2023/09/07 03:45:17;;;;;;;9.13;6.25;;;18.00;99.90;;;;;;5033195;28;20674;-72
2023/09/07 03:48:03;;;;;;;14.27;7.10;;;17.90;99.90;;;;;;5023019;28;20615;-72
2023/09/07 03:50:49;;;;;;;8.32;6.75;;;17.90;99.90;;;;;;5032082;28;20427;-73
2023/09/07 03:53:35;;;;;;;14.45;6.70;;;17.80;99.90;;;;;;5021413;28;20037;-73
2023/09/07 03:56:21;;;;;;;8.57;5.65;;;17.90;99.90;;;;;;5048880;28;20048;-73
2023/09/07 03:59:07;;;;;;;8.90;7.05;;;17.90;99.90;;;;;;5032553;28;20680;-72
2023/09/07 04:01:54;;;;;;;9.30;6.28;;;17.80;99.90;;;;;;5049446;28;20049;-72
2023/09/07 04:04:40;;;;;;;9.30;6.75;;;17.80;99.90;;;;;;5019569;28;20065;-72
2023/09/07 04:07:26;;;;;;;7.82;6.35;;;17.80;99.90;;;;;;5033896;28;20041;-72
2023/09/07 04:10:12;;;;;;;8.30;6.55;;;17.70;99.90;;;;;;5035700;28;20490;-72
2023/09/07 04:12:58;;;;;;;9.43;6.68;;;17.70;99.90;;;;;;5029152;28;20480;-72
2023/09/07 04:15:44;;;;;;;11.75;6.80;;;17.60;99.90;;;;;;5046348;28;20075;-72
2023/09/07 04:18:30;;;;;;;9.63;6.47;;;17.60;99.90;;;;;;5043466;28;20461;-71
2023/09/07 04:21:17;;;;;;;9.77;6.25;;;17.60;99.90;;;;;;5040015;28;20041;-72
2023/09/07 04:24:03;;;;;;;8.50;6.72;;;17.60;99.90;;;;;;5019118;28;20072;-72
2023/09/07 04:26:52;;;;;;;10.93;7.47;;;17.60;99.90;;;;;;5025665;28;20045;-72
2023/09/07 04:29:38;;;;;;;11.15;6.70;;;17.50;99.90;;;;;;5041540;28;20080;-72
2023/09/07 04:32:24;;;;;;;8.60;6.40;;;17.50;99.90;;;;;;5051127;28;20067;-72
2023/09/07 04:35:10;;;;;;;11.27;7.28;;;17.50;99.90;;;;;;5028212;28;20041;-72
2023/09/07 04:37:56;;;;;;;7.95;6.20;;;17.50;99.90;;;;;;5040115;28;20041;-73
2023/09/07 04:40:42;;;;;;;8.35;6.50;;;17.60;99.90;;;;;;5042374;28;20041;-72
2023/09/07 04:43:28;;;;;;;10.52;6.55;;;17.60;99.90;;;;;;5037286;28;20064;-72
2023/09/07 04:46:14;;;;;;;12.60;6.97;;;17.60;99.90;;;;;;5042357;28;20056;-72
2023/09/07 04:49:00;;;;;;;9.82;6.82;;;17.50;99.90;;;;;;5026991;28;20060;-72
2023/09/07 04:51:46;;;;;;;9.75;6.70;;;17.50;99.90;;;;;;5032186;28;20037;-72
2023/09/07 04:54:32;;;;;;;9.93;6.47;;;17.50;99.90;;;;;;5042604;28;20053;-72
2023/09/07 04:57:18;;;;;;;9.48;6.57;;;17.50;99.90;;;;;;5023088;28;20037;-73
2023/09/07 05:00:06;;;;;;;8.20;6.18;;;17.50;99.90;;;;;;5021279;28;20505;-73
2023/09/07 05:02:52;;;;;;;8.75;6.88;;;17.50;99.90;;;;;;5043386;28;20051;-72
2023/09/07 05:05:38;;;;;;;11.45;7.40;;;17.40;99.90;;;;;;5018077;28;20056;-72
2023/09/07 05:08:24;;;;;;;9.48;6.80;;;17.40;99.90;;;;;;5044613;28;20037;-72
2023/09/07 05:11:10;;;;;;;12.63;6.38;;;17.30;99.90;;;;;;5047565;28;20049;-72
2023/09/07 05:13:56;;;;;;;8.65;6.35;;;17.30;99.90;;;;;;5031901;28;20036;-72
2023/09/07 05:16:43;;;;;;;7.70;6.40;;;17.30;99.90;;;;;;5037084;28;20089;-72
2023/09/07 05:19:29;;;;;;;11.60;6.57;;;17.30;99.90;;;;;;5030090;28;20084;-72
2023/09/07 05:22:15;;;;;;;11.95;6.57;;;17.30;99.90;;;;;;5038866;28;20106;-72
2023/09/07 05:25:01;;;;;;;9.98;6.05;;;17.30;99.90;;;;;;5035158;28;20041;-72
2023/09/07 05:27:48;;;;;;;12.93;6.95;;;17.30;99.90;;;;;;5041539;28;20441;-72
2023/09/07 05:30:34;;;;;;;9.90;6.22;;;17.30;99.90;;;;;;5045490;28;20048;-72
2023/09/07 05:33:20;;;;;;;10.10;6.45;;;17.30;99.90;;;;;;5024575;28;20041;-72
2023/09/07 05:36:06;;;;;;;10.93;6.00;;;17.30;99.90;;;;;;5035283;28;20037;-72
2023/09/07 05:38:52;;;;;;;12.57;7.20;;;17.30;99.90;;;;;;5030090;28;20060;-72
2023/09/07 05:41:38;;;;;;;11.63;6.63;;;17.30;99.90;;;;;;5020854;28;20445;-72
2023/09/07 05:44:24;;;;;;;9.55;6.47;;;17.30;99.90;;;;;;5023718;28;20037;-72
2023/09/07 05:47:10;;;;;;;11.50;6.60;;;17.40;99.90;;;;;;5035242;28;20454;-72
2023/09/07 05:49:56;;;;;;;9.82;6.93;;;17.40;99.90;;;;;;5035260;28;20066;-72
2023/09/07 05:52:42;;;;;;;8.82;7.07;;;17.40;99.90;;;;;;5040874;28;20444;-72
2023/09/07 05:55:28;;;;;;;11.02;7.80;;;17.40;99.90;;;;;;5022693;28;20045;-72
2023/09/07 05:58:14;;;;;;;10.35;7.03;;;17.50;99.90;;;;;;5026574;28;20055;-72
2023/09/07 06:01:00;;;;;;;10.10;7.10;;;17.50;99.90;;;;;;5045351;28;20106;-72
2023/09/07 06:03:47;;;;;;;12.18;8.32;;;17.50;99.90;;;;;;5034533;28;20075;-72
2023/09/07 06:06:33;;;;;;;12.30;7.68;;;17.60;99.90;;;;;;5031537;28;20041;-72
2023/09/07 06:09:19;;;;;;;11.60;7.43;;;17.60;99.90;;;;;;5023782;28;20041;-72
2023/09/07 06:12:05;;;;;;;10.00;7.00;;;17.70;99.90;;;;;;5048540;28;20041;-73
2023/09/07 06:14:51;;;;;;;10.88;7.75;;;17.80;99.90;;;;;;5041126;28;20095;-72
2023/09/07 06:17:37;;;;;;;10.13;7.82;;;17.80;99.90;;;;;;5045077;28;20047;-72
2023/09/07 06:20:23;;;;;;;14.35;7.88;;;17.90;99.90;;;;;;5044939;28;20060;-73
2023/09/07 06:23:09;;;;;;;11.93;8.25;;;17.90;99.90;;;;;;5037689;28;20037;-73
2023/09/07 06:25:55;;;;;;;9.27;7.40;;;18.00;99.90;;;;;;5020652;28;20525;-73
2023/09/07 06:28:41;;;;;;;14.05;7.47;;;18.00;99.90;;;;;;5047862;28;20045;-73
2023/09/07 06:31:30;;;;;;;12.38;7.07;;;18.10;99.90;;;;;;5036290;28;20069;-72
2023/09/07 06:34:16;;;;;;;8.93;6.78;;;18.20;99.90;;;;;;5049150;28;20104;-73
2023/09/07 06:37:02;;;;;;;15.48;7.38;;;18.20;99.90;;;;;;5033467;28;20119;-73
2023/09/07 06:39:48;;;;;;;10.70;7.63;;;18.30;99.90;;;;;;5038150;28;20044;-74
2023/09/07 06:42:34;;;;;;;11.10;7.13;;;18.40;99.90;;;;;;5048724;28;20032;-73
2023/09/07 06:45:20;;;;;;;9.80;6.85;;;18.50;99.90;;;;;;5026930;28;20041;-72
2023/09/07 06:48:06;;;;;;;10.35;7.07;;;18.50;99.90;;;;;;5041162;28;20104;-72
2023/09/07 06:50:54;;;;;;;10.43;7.05;;;18.60;99.90;;;;;;5021169;28;20060;-72
2023/09/07 06:53:41;;;;;;;10.60;7.50;;;18.70;99.90;;;;;;5033788;28;20041;-73
2023/09/07 06:56:27;;;;;;;10.98;7.40;;;18.80;99.90;;;;;;5025472;28;20138;-74
2023/09/07 06:59:13;;;;;;;10.05;7.43;;;18.90;99.90;;;;;;5064185;28;20449;-73
2023/09/07 07:02:00;;;;;;;15.18;7.38;;;18.90;99.90;;;;;;5037233;28;20491;-73
2023/09/07 07:04:46;;;;;;;9.70;6.75;;;19.10;99.90;;;;;;5049680;28;20045;-73
2023/09/07 07:07:34;;;;;;;11.93;6.97;;;19.10;99.90;;;;;;5040755;28;20045;-73
2023/09/07 07:10:20;;;;;;;8.07;6.50;;;19.20;99.90;;;;;;5044033;28;20122;-74
2023/09/07 07:13:06;;;;;;;8.48;6.40;;;19.30;99.90;;;;;;5039558;28;20042;-73
2023/09/07 07:15:52;;;;;;;8.65;6.18;;;19.40;99.90;;;;;;5022460;28;20821;-73
2023/09/07 07:18:39;;;;;;;8.13;5.63;;;19.50;99.90;;;;;;5011546;28;20148;-72
2023/09/07 07:21:25;;;;;;;12.38;6.07;;;19.60;99.90;;;;;;5031499;28;20568;-73
2023/09/07 07:24:11;;;;;;;13.68;6.72;;;19.60;99.90;;;;;;5035083;28;20076;-73
2023/09/07 07:26:57;;;;;;;10.77;6.20;;;19.70;99.90;;;;;;5009362;28;20080;-73
2023/09/07 07:29:43;;;;;;;11.63;6.30;;;19.80;99.90;;;;;;5038132;28;20124;-73
2023/09/07 07:32:29;;;;;;;9.40;5.80;;;19.90;99.90;;;;;;5049513;28;20044;-74
2023/09/07 07:35:15;;;;;;;9.93;6.03;;;20.00;99.90;;;;;;5051727;28;20037;-72
2023/09/07 07:38:03;;;;;;;9.88;6.15;;;20.10;99.90;;;;;;5033909;28;20033;-73
2023/09/07 07:40:50;;;;;;;10.02;5.68;;;20.20;99.90;;;;;;5010974;28;20128;-73
2023/09/07 07:43:36;;;;;;;12.43;6.40;;;20.30;99.90;;;;;;5058623;28;20044;-73
2023/09/07 07:46:22;;;;;;;8.98;6.00;;;20.40;99.90;;;;;;5011664;28;20921;-73
2023/09/07 07:49:09;;;;;;;13.52;5.97;;;20.50;99.90;;;;;;5046581;28;20053;-73
2023/09/07 07:51:58;;;;;;;9.57;6.35;;;20.60;99.90;;;;;;5031347;28;20761;-74
2023/09/07 07:54:44;;;;;;;10.95;6.20;;;20.70;99.90;;;;;;5034679;28;20118;-74
2023/09/07 07:57:31;;;;;;;11.32;6.30;;;20.80;99.90;;;;;;5021180;28;20033;-73
2023/09/07 08:00:17;;;;;;;26.40;7.90;;;20.90;99.90;;;;;;5032805;28;20041;-75
2023/09/07 08:03:08;;;;;;;10.13;5.95;;;20.90;99.90;;;;;;5030064;28;20048;-76
2023/09/07 08:05:54;;;;;;;14.20;5.93;;;21.00;99.90;;;;;;5024794;28;20038;-75
2023/09/07 08:08:40;;;;;;;9.10;5.90;;;21.10;99.90;;;;;;5026945;28;20102;-76
2023/09/07 08:11:27;;;;;;;14.20;6.75;;;21.20;99.90;;;;;;5036421;28;20033;-75
2023/09/07 08:14:12;;;;;;;12.13;5.47;;;21.30;99.90;;;;;;5045349;28;20350;-75
2023/09/07 08:16:59;;;;;;;14.10;6.25;;;21.40;99.90;;;;;;5041020;28;20041;-75
2023/09/07 08:19:47;;;;;;;12.40;5.85;;;21.50;99.90;;;;;;5049273;28;20067;-75
2023/09/07 08:22:36;;;;;;;8.60;5.72;;;21.50;99.90;;;;;;5031485;28;20106;-76
2023/09/07 08:25:23;;;;;;;11.02;5.43;;;21.60;99.90;;;;;;5035146;28;20262;-75
2023/09/07 08:28:09;;;;;;;11.10;5.97;;;21.80;99.90;;;;;;5024208;28;20107;-76
2023/09/07 08:30:55;;;;;;;9.85;4.97;;;21.90;99.90;;;;;;5031796;28;20041;-75
2023/09/07 08:33:40;;;;;;;11.57;5.20;;;21.90;99.90;;;;;;5016650;28;20069;-76
2023/09/07 08:36:28;;;;;;;12.95;5.38;;;22.00;99.90;;;;;;5031699;28;20057;-75
2023/09/07 08:39:14;;;;;;;8.10;5.32;;;22.10;99.50;;;;;;5047481;28;20045;-76
2023/09/07 08:42:00;;;;;;;11.73;5.78;;;22.10;99.90;;;;;;5031540;28;20344;-76
2023/09/07 08:44:46;;;;;;;12.10;5.25;;;22.30;99.70;;;;;;5031960;28;20068;-75
2023/09/07 08:47:36;;;;;;;11.93;5.20;;;22.30;99.60;;;;;;5035193;28;20053;-75
2023/09/07 08:50:23;;;;;;;9.52;5.05;;;22.40;99.20;;;;;;5039335;28;20049;-76
2023/09/07 08:53:09;;;;;;;14.13;5.87;;;22.50;98.40;;;;;;5020425;28;20049;-76
2023/09/07 08:55:55;;;;;;;8.93;5.20;;;22.50;98.10;;;;;;5016286;28;20037;-75
2023/09/07 08:58:41;;;;;;;10.73;4.95;;;22.60;98.30;;;;;;5038750;28;20055;-76
2023/09/07 09:01:31;;;;;;;5.90;4.55;;;22.70;98.40;;;;;;5050126;28;20040;-75
2023/09/07 09:04:17;;;;;;;9.18;4.53;;;22.80;97.90;;;;;;5049294;28;20040;-76
2023/09/07 09:07:04;;;;;;;9.98;5.07;;;22.80;97.90;;;;;;5021000;28;20781;-74
2023/09/07 09:09:49;;;;;;;7.53;4.55;;;22.90;98.20;;;;;;5020081;28;20366;-75
2023/09/07 09:12:35;;;;;;;8.57;5.10;;;23.00;98.00;;;;;;5033028;28;20128;-75
2023/09/07 09:15:22;;;;;;;10.63;4.80;;;23.10;98.00;;;;;;5035689;28;20662;-75
2023/09/07 09:18:14;;;;;;;10.23;4.85;;;23.10;98.10;;;;;;5042085;28;20052;-76
2023/09/07 09:21:00;;;;;;;9.10;5.00;;;23.20;97.50;;;;;;5039250;28;20057;-75
2023/09/07 09:23:48;;;;;;;12.30;5.13;;;23.20;97.50;;;;;;5030859;28;20077;-74
2023/09/07 09:26:36;;;;;;;6.55;4.65;;;23.30;97.40;;;;;;5035553;28;20110;-74
2023/09/07 09:29:23;;;;;;;9.00;4.93;;;23.40;97.40;;;;;;5036128;28;20049;-74
2023/09/07 09:32:10;;;;;;;9.30;5.43;;;23.50;97.70;;;;;;5014355;28;20033;-75
2023/09/07 09:34:56;;;;;;;9.15;4.50;;;23.50;97.10;;;;;;5045632;28;20065;-74
2023/09/07 09:37:51;;;;;;;11.23;5.07;;;23.60;97.80;;;;;;5029916;28;20072;-73
2023/09/07 09:40:38;;;;;;;8.60;4.10;;;23.80;97.80;;;;;;5020549;28;20094;-73
2023/09/07 09:43:25;;;;;;;11.60;4.85;;;23.80;97.20;;;;;;5049371;28;20052;-73
2023/09/07 09:46:11;;;;;;;8.32;4.85;;;24.00;96.70;;;;;;5020611;28;20045;-74
2023/09/07 09:48:57;;;;;;;8.90;4.68;;;24.00;96.80;;;;;;5042451;28;20041;-74
2023/09/07 09:51:43;;;;;;;11.18;4.63;;;24.10;97.10;;;;;;5019851;28;20103;-74
2023/09/07 09:54:29;;;;;;;9.60;4.72;;;24.20;96.20;;;;;;5014373;28;20747;-73
2023/09/07 09:57:15;;;;;;;9.90;4.70;;;24.30;96.20;;;;;;5043533;28;20040;-74
2023/09/07 10:00:08;;;;;;;10.07;4.78;;;24.40;96.00;;;;;;5027758;28;20048;-74
2023/09/07 10:02:56;;;;;;;9.35;4.55;;;24.40;95.30;;;;;;5034195;28;20721;-73
2023/09/07 10:05:44;;;;;;;9.68;4.18;;;24.50;95.00;;;;;;5052459;28;20106;-73
2023/09/07 10:08:30;;;;;;;8.50;4.28;;;24.50;95.30;;;;;;5039738;28;20049;-73
2023/09/07 10:11:16;;;;;;;10.77;4.90;;;24.60;94.80;;;;;;5027192;28;20081;-74
2023/09/07 10:14:05;;;;;;;8.40;4.40;;;24.70;94.70;;;;;;5036471;28;20132;-74
2023/09/07 10:16:55;;;;;;;6.35;4.32;;;24.80;94.30;;;;;;5028103;28;20037;-74
2023/09/07 10:19:49;;;;;;;8.48;4.30;;;24.90;94.60;;;;;;5042412;28;20168;-75
2023/09/07 10:22:35;;;;;;;7.53;4.40;;;25.00;94.40;;;;;;5019782;28;20056;-74
2023/09/07 10:25:22;;;;;;;7.70;4.15;;;25.20;94.00;;;;;;5042644;28;20486;-74
2023/09/07 10:28:28;;;;;;;11.45;4.45;;;25.20;94.10;;;;;;5026208;28;20087;-74
2023/09/07 10:31:18;;;;;;;10.57;3.85;;;25.40;93.80;;;;;;5032408;28;20057;-73
2023/09/07 10:34:09;;;;;;;6.35;4.43;;;25.50;94.10;;;;;;5027252;28;20048;-74
2023/09/07 10:36:56;;;;;;;7.70;3.78;;;25.50;94.10;;;;;;5043650;28;20152;-74
2023/09/07 10:39:43;;;;;;;12.02;4.85;;;25.70;94.00;;;;;;5021869;28;20076;-74
2023/09/07 10:42:30;;;;;;;4.70;3.80;;;25.80;92.90;;;;;;5019544;28;20052;-74
2023/09/07 10:45:16;;;;;;;6.00;4.32;;;25.90;93.20;;;;;;5047942;28;20172;-76
2023/09/07 10:48:06;;;;;;;6.57;3.78;;;26.10;93.00;;;;;;5022305;28;20049;-75
2023/09/07 10:50:52;;;;;;;12.70;4.07;;;26.20;92.90;;;;;;5025669;28;20056;-74
2023/09/07 10:53:39;;;;;;;7.40;3.90;;;26.20;92.70;;;;;;5033271;28;20044;-75
2023/09/07 10:56:28;;;;;;;9.65;4.30;;;26.20;92.80;;;;;;5045210;28;20104;-75
2023/09/07 10:59:14;;;;;;;11.02;4.03;;;26.30;92.20;;;;;;5036355;28;20041;-74
2023/09/07 11:02:07;;;;;;;18.88;4.65;;;26.30;92.10;;;;;;5042957;28;20137;-74
2023/09/07 11:04:53;;;;;;;7.03;4.22;;;26.60;92.10;;;;;;5055631;28;20392;-74
2023/09/07 11:07:42;;;;;;;10.55;4.32;;;26.70;90.80;;;;;;5041102;28;20044;-74
2023/09/07 11:10:31;;;;;;;8.73;3.97;;;26.70;91.90;;;;;;5051546;28;20045;-74
2023/09/07 11:13:17;;;;;;;12.60;4.25;;;26.70;91.70;;;;;;5006062;28;20366;-74
2023/09/07 11:16:05;;;;;;;9.77;4.47;;;26.70;91.40;;;;;;5036324;28;20071;-74
2023/09/07 11:18:51;;;;;;;;;;;26.80;91.00;;;;;;5019224;28;20033;-74
2023/09/07 11:21:37;;;;;;;5.07;3.70;;;27.00;91.00;;;;;;5028151;28;19955;-74
2023/09/07 11:24:24;;;;;;;7.03;3.83;;;27.10;90.60;;;;;;5042831;28;20056;-74
2023/09/07 11:27:10;;;;;;;8.55;4.20;;;27.10;90.80;;;;;;5020504;28;20063;-74
2023/09/07 11:29:56;;;;;;;7.53;3.55;;;27.20;90.70;;;;;;5050136;28;20350;-74
2023/09/07 11:32:42;;;;;;;6.85;3.83;;;27.30;90.20;;;;;;5020034;28;20091;-74
2023/09/07 11:35:28;;;;;;;5.30;3.15;;;27.40;90.00;;;;;;5041683;28;20037;-74
2023/09/07 11:38:16;;;;;;;9.88;3.78;;;27.50;87.60;;;;;;5018960;28;20042;-74
2023/09/07 11:41:03;;;;;;;8.95;3.58;;;27.60;87.50;;;;;;5030370;28;20049;-74
2023/09/07 11:43:49;;;;;;;5.25;3.63;;;27.70;87.70;;;;;;5046242;28;20059;-74
2023/09/07 11:46:35;;;;;;;5.78;3.78;;;27.70;88.70;;;;;;5032459;28;20462;-74
2023/09/07 11:49:22;;;;;;;6.20;3.70;;;27.70;85.50;;;;;;5023330;28;20482;-74
2023/09/07 11:52:08;;;;;;;7.25;3.92;;;27.70;87.70;;;;;;5050864;28;20541;-74
2023/09/07 11:54:54;;;;;;;6.45;3.47;;;27.90;85.30;;;;;;5050044;28;20041;-74
2023/09/07 11:57:40;;;;;;;6.93;3.83;;;27.90;85.90;;;;;;5036332;28;20170;-74
2023/09/07 12:00:26;;;;;;;6.17;3.53;;;27.90;87.20;;;;;;5018509;28;20521;-74
2023/09/07 12:03:12;;;;;;;8.45;3.67;;;28.00;84.30;;;;;;5035367;28;20291;-74
2023/09/07 12:05:58;;;;;;;6.72;3.65;;;28.10;81.70;;;;;;5060823;28;20364;-73
2023/09/07 12:09:01;;;;;;;4.97;3.50;;;28.20;82.80;;;;;;5023169;28;20060;-74
2023/09/07 12:11:47;;;;;;;6.05;3.50;;;28.10;81.50;;;;;;5022243;28;20072;-74
2023/09/07 12:14:33;;;;;;;5.32;3.50;;;28.30;82.50;;;;;;5031415;28;20133;-75
2023/09/07 12:17:19;;;;;;;8.35;3.90;;;28.40;79.90;;;;;;5035346;28;20114;-74
2023/09/07 12:20:09;;;;;;;6.65;3.63;;;28.40;81.70;;;;;;5030827;28;20052;-74
2023/09/07 12:22:55;;;;;;;8.57;3.80;;;28.50;81.00;;;;;;5031254;28;20073;-74
2023/09/07 12:25:41;;;;;;;5.35;3.55;;;28.50;78.70;;;;;;5032448;28;20091;-76
2023/09/07 12:28:27;;;;;;;5.38;3.95;;;28.50;80.10;;;;;;5050695;28;20044;-76
2023/09/07 12:31:14;;;;;;;8.40;4.57;;;28.70;82.30;;;;;;5046460;28;20044;-76
2023/09/07 12:34:00;;;;;;;6.65;4.22;;;28.90;82.20;;;;;;5024452;28;20758;-77
2023/09/07 12:36:46;;;;;;;7.65;3.90;;;29.20;80.00;;;;;;5038293;28;20056;-77
2023/09/07 12:39:33;;;;;;;9.00;6.85;;;29.30;80.30;;;;;;5035026;28;20457;-77
2023/09/07 12:42:18;;;;;;;9.32;4.38;;;29.50;80.90;;;;;;5048841;28;20452;-77
2023/09/07 12:45:06;;;;;;;7.15;3.97;;;29.60;78.20;;;;;;5024825;28;20047;-76
2023/09/07 12:47:53;;;;;;;6.60;4.10;;;29.80;77.50;;;;;;5040965;28;20045;-77
2023/09/07 12:50:40;;;;;;;;;;;30.00;76.90;;;;;;5040084;28;20390;-77
2023/09/07 12:53:26;;;;;;;9.65;6.10;;;30.20;77.50;;;;;;5021433;28;19916;-77
2023/09/07 12:56:13;;;;;;;7.03;4.70;;;30.30;77.10;;;;;;5047135;28;20037;-77
2023/09/07 12:58:59;;;;;;;7.17;3.90;;;30.40;76.00;;;;;;5034047;28;20033;-77
2023/09/07 13:01:47;;;;;;;5.93;3.90;;;30.60;74.80;;;;;;5023992;28;20095;-76
2023/09/07 13:04:33;;;;;;;;;;;30.80;74.50;;;;;;5026312;28;20041;-78
2023/09/07 13:07:19;;;;;;;7.60;5.65;;;30.90;73.60;;;;;;5032093;28;19920;-78
2023/09/07 13:10:05;;;;;;;9.68;5.65;;;31.20;73.40;;;;;;5035551;28;20055;-78
2023/09/07 13:12:51;;;;;;;10.23;4.50;;;31.30;72.90;;;;;;5022137;28;20105;-80
2023/09/07 13:15:37;;;;;;;6.47;3.38;;;31.50;72.10;;;;;;5035628;28;20051;-77
2023/09/07 13:18:23;;;;;;;9.35;3.80;;;31.70;69.60;;;;;;5039953;28;20096;-76
2023/09/07 13:21:09;;;;;;;5.38;3.35;;;31.40;68.90;;;;;;5024592;28;20045;-78
2023/09/07 13:23:55;;;;;;;8.65;3.92;;;31.70;70.00;;;;;;5047160;28;20037;-78
2023/09/07 13:26:41;;;;;;;5.55;4.53;;;31.90;70.30;;;;;;5037707;28;20539;-77
2023/09/07 13:29:27;;;;;;;6.25;4.18;;;32.00;70.20;;;;;;5052832;28;20051;-78
2023/09/07 13:32:13;;;;;;;8.50;4.60;;;32.20;68.70;;;;;;5041531;28;20073;-78
2023/09/07 13:35:00;;;;;;;5.40;4.13;;;32.30;69.60;;;;;;5038793;28;20041;-78
2023/09/07 13:37:47;;;;;;;5.75;4.13;;;32.50;68.80;;;;;;5027384;28;20446;-77
2023/09/07 13:40:33;;;;;;;5.88;3.72;;;32.50;68.20;;;;;;5047699;28;20051;-76
2023/09/07 13:43:19;;;;;;;6.50;3.90;;;32.60;68.30;;;;;;5025190;28;20045;-76
2023/09/07 13:46:05;;;;;;;5.78;4.13;;;32.60;68.30;;;;;;5038883;28;20083;-77
2023/09/07 13:48:51;;;;;;;5.15;4.07;;;32.70;68.20;;;;;;5041101;28;20124;-78
2023/09/07 13:51:39;;;;;;;8.77;3.50;;;32.90;67.60;;;;;;5040590;28;20056;-78
2023/09/07 13:54:25;;;;;;;6.40;3.45;;;33.00;67.20;;;;;;5034608;28;20367;-77
2023/09/07 13:57:11;;;;;;;6.55;3.38;;;33.10;67.00;;;;;;5041620;28;20041;-78
2023/09/07 13:59:57;;;;;;;5.90;3.67;;;33.10;65.40;;;;;;5022688;28;20033;-77
2023/09/07 14:02:43;;;;;;;6.47;3.45;;;33.20;65.80;;;;;;5020323;28;20464;-77
2023/09/07 14:05:29;;;;;;;7.40;3.60;;;33.20;65.80;;;;;;5034014;28;20485;-77
2023/09/07 14:08:15;;;;;;;5.35;3.38;;;33.20;65.80;;;;;;5021575;28;20129;-77
2023/09/07 14:11:01;;;;;;;5.40;3.30;;;33.20;65.60;;;;;;5041386;28;20075;-77
2023/09/07 14:13:49;;;;;;;8.07;3.10;;;33.20;65.10;;;;;;5022485;28;20041;-77
2023/09/07 14:16:35;;;;;;;6.70;3.40;;;33.20;64.50;;;;;;5042612;28;20038;-77
2023/09/07 14:19:21;;;;;;;7.60;3.38;;;33.30;64.40;;;;;;5051012;28;20134;-78
2023/09/07 14:22:07;;;;;;;10.20;4.30;;;33.20;62.80;;;;;;5042659;28;20170;-77
2023/09/07 14:24:53;;;;;;;4.82;3.17;;;33.30;64.10;;;;;;5035947;28;20060;-78